This is the latest recevied weather packets stored in our database for station/object N4OGP-WX. If no packets are shown the sender has not sent any weather packets the latest 10 day(s).
| Time | Temp. | Humidity | Pressure | Rain* | Wind** | Luminosity | Snow |
|---|---|---|---|---|---|---|---|
| 1778262539 | 23.89° C | 42% | 1020.4 hPa | 0 mm | - | - | - |
| 1778262449 | 21.67° C | 85% | 1011.5 hPa | 0 mm | - | - | - |
| 1778262389 | 21.67° C | 85% | 1011.5 hPa | 0 mm | - | - | - |
| 1778262329 | 21.67° C | 85% | 1011.5 hPa | 0 mm | - | - | - |
| 1778262239 | 22.22° C | 84% | 1011.5 hPa | 0 mm | - | - | - |
| 1778262149 | 22.22° C | 85% | 1011.5 hPa | 0 mm | - | - | - |
| 1778262059 | 22.22° C | 84% | 1011.5 hPa | 0 mm | - | - | - |
| 1778261969 | 22.22° C | 85% | 1011.5 hPa | 0 mm | - | - | - |
| 1778261909 | 22.22° C | 85% | 1011.5 hPa | 0 mm | - | - | - |
| 1778261819 | 23.89° C | 42% | 1020.4 hPa | 0 mm | - | - | - |
| 1778261759 | 22.22° C | 84% | 1011.6 hPa | 0 mm | - | - | - |
| 1778261669 | 22.22° C | 84% | 1011.6 hPa | 0 mm | - | - | - |
| 1778261609 | 22.22° C | 85% | 1011.6 hPa | 0 mm | - | - | - |
| 1778261519 | 22.22° C | 85% | 1011.5 hPa | 0 mm | - | - | - |
| 1778261459 | 23.89° C | 42% | 1020.4 hPa | 0 mm | - | - | - |
| 1778261369 | 23.89° C | 42% | 1020.4 hPa | 0 mm | - | - | - |
| 1778261309 | 23.89° C | 42% | 1020.4 hPa | 0 mm | - | - | - |
| 1778261249 | 22.22° C | 84% | 1011.6 hPa | 0 mm | - | - | - |
| 1778261189 | 22.22° C | 84% | 1011.7 hPa | 0 mm | - | - | - |
| 1778261129 | 22.22° C | 85% | 1011.7 hPa | 0 mm | - | - | - |
| 1778261039 | 23.89° C | 42% | 1020.4 hPa | 0 mm | - | - | - |
| 1778260979 | 23.89° C | 42% | 1020.4 hPa | 0 mm | - | - | - |
| 1778260919 | 23.89° C | 42% | 1020.4 hPa | 0 mm | - | - | - |
| 1778260859 | 22.22° C | 84% | 1011.8 hPa | 0 mm | - | - | - |
| 1778260799 | 23.89° C | 42% | 1020.4 hPa | 0 mm | - | - | - |
* Rain latest hour (hover to see other rain measurements)
** Current wind speed in m/s (hover to see current wind gust speed)